ADDS METAR Data INFO
IDs: Format: Raw Decoded Include TAF

Data at: 0835 UTC 21 Oct 2017

KMKL 210753Z AUTO 13003KT 10SM CLR 12/11 A3012 RMK AO2 SLP198 T01170106
KMKL 210653Z AUTO 00000KT 10SM CLR 12/11 A3013 RMK AO2 SLP200 T01220106
KMKL 210553Z AUTO 00000KT 10SM CLR 12/11 A3012 RMK AO2 SLP198 T01170106 10156 20111 402500056 58006
KMKL 210453Z AUTO 00000KT 10SM CLR 12/11 A3013 RMK AO2 SLP202 T01220106
KMKL 210353Z AUTO 00000KT 10SM CLR 13/11 A3014 RMK AO2 SLP204 T01330106
KMKL 210253Z AUTO 00000KT 10SM CLR 12/12 A3014 RMK AO2 SLP206 T01220117 53000
KMKL 210153Z AUTO 00000KT 10SM CLR 12/12 A3014 RMK AO2 SLP204 T01170117
KMKL 210053Z AUTO 00000KT 10SM CLR 14/13 A3013 RMK AO2 SLP204 T01390133
KMKL 202353Z AUTO 21003KT 10SM CLR 16/13 A3014 RMK AO2 SLP206 T01560133 10250 20150 55001
KMKL 202253Z 00000KT 10SM CLR 20/14 A3014 RMK AO2 SLP204 T02000139
KMKL 202153Z 00000KT 10SM CLR 23/12 A3014 RMK AO2 SLP205 T02330122
KMKL 202053Z 11003KT 10SM CLR 24/11 A3015 RMK AO2 SLP206 T02390111 56022
KMKL 201953Z 13005KT 10SM CLR 24/10 A3015 RMK AO2 SLP208 T02440100
KMKL 201853Z VRB04KT 10SM CLR 24/11 A3018 RMK AO2 SLP219 T02390111
KMKL 201753Z VRB04KT 10SM CLR 23/11 A3021 RMK AO2 SLP228 T02330111 10239 20056 58025
KMKL 201653Z 19006KT 10SM CLR 23/13 A3026 RMK AO2 SLP243 T02280128
KMKL 201553Z 00000KT 10SM CLR 19/12 A3027 RMK AO2 SLP250 T01890122
KMKL 201453Z 00000KT 10SM CLR 17/13 A3029 RMK AO2 SLP254 T01720133 51009
KMKL 201353Z 10003KT 10SM CLR 12/11 A3028 RMK AO2 SLP254 T01220106
KMKL 201253Z 00000KT 10SM CLR 07/07 A3027 RMK AO2 SLP249 T00670067
KMKL 201153Z 00000KT 10SM CLR 06/06 A3026 RMK AO2 SLP246 T00610056 10083 20056 51008
KMKL 201053Z AUTO 00000KT 10SM CLR 06/05 A3025 RMK AO2 SLP243 T00560050
KMKL 200953Z AUTO 00000KT 10SM CLR 07/06 A3025 RMK AO2 SLP240 T00670061
KMKL 200853Z AUTO 00000KT 8SM CLR 07/06 A3023 RMK AO2 SLP236 T00670061 53004
KMKL 200753Z AUTO 00000KT 10SM CLR 08/07 A3022 RMK AO2 SLP233 T00780072
KMKL 200653Z AUTO 00000KT 9SM CLR 08/08 A3022 RMK AO2 SLP232 T00830078
KMKL 200600Z AUTO 00000KT 8SM CLR 08/08 A3022 RMK AO2 T00830078
KMKL 200553Z AUTO 00000KT 2SM BR CLR 08/08 A3022 RMK AO2 VIS 1V5 SLP231 T00780078 10156 20078 402500044 50000
KMKL 200546Z AUTO 00000KT 1 3/4SM BR CLR 08/08 A3022 RMK AO2 VIS 3/4V5 T00830078
KMKL 200453Z AUTO 00000KT 8SM CLR 09/09 A3023 RMK AO2 SLP234 T00940094
KMKL 200353Z AUTO 21003KT 10SM CLR 10/10 A3023 RMK AO2 SLP233 T01000100
KMKL 200253Z AUTO 00000KT 10SM CLR 11/11 A3022 RMK AO2 SLP232 T01110106 53003
KMKL 200153Z AUTO 00000KT 10SM CLR 12/12 A3021 RMK AO2 SLP230 T01220117
KMKL 200053Z AUTO 16004KT 10SM CLR 13/12 A3022 RMK AO2 SLP232 T01330122
KMKL 192353Z 16003KT 10SM CLR 16/13 A3021 RMK AO2 SLP230 T01560128 10250 20150 55000
KMKL 192253Z 14003KT 10SM CLR 21/13 A3020 RMK AO2 SLP226 T02110128
KMKL 192153Z 00000KT 10SM CLR 24/11 A3021 RMK AO2 SLP227 T02390106
KMKL 192053Z VRB04KT 10SM CLR 24/10 A3021 RMK AO2 SLP229 T02440100 56016